Time;durP1;ratioP1;P1;durP2;ratioP2;P2;SDS_P1;SDS_P2;PMS_P1;PMS_P2;Temp;Humidity;BMP_temperature;BMP_pressure;BME280_temperature;BME280_humidity;BME280_pressure;Samples;Min_cycle;Max_cycle;Signal;HPM_P1;HPM_P2
2023/02/22 00:01:33;;;;;;;8.00;6.37;;;8.90;99.90;;;;;;4973225;28;20192;-54
2023/02/22 00:04:01;;;;;;;8.03;6.83;;;8.60;99.90;;;;;;4974961;28;20212;-55
2023/02/22 00:06:27;;;;;;;8.27;7.47;;;9.00;99.90;;;;;;4972577;28;20568;-51
2023/02/22 00:08:52;;;;;;;10.47;7.07;;;8.90;99.90;;;;;;4971356;28;20186;-54
2023/02/22 00:11:19;;;;;;;8.70;7.17;;;8.90;99.90;;;;;;4971859;28;20194;-54
2023/02/22 00:13:46;;;;;;;7.13;6.40;;;9.00;99.90;;;;;;4971772;28;20213;-52
2023/02/22 00:16:16;;;;;;;9.27;7.50;;;;;;;;;;4971877;28;20193;-52
2023/02/22 00:18:43;;;;;;;9.50;8.50;;;;;;;;;;4971679;28;20178;-54
2023/02/22 00:21:10;;;;;;;8.60;7.70;;;8.90;99.90;;;;;;4971511;28;20212;-55
2023/02/22 00:23:38;;;;;;;9.43;8.20;;;9.10;99.90;;;;;;4970934;28;20756;-53
2023/02/22 00:26:08;;;;;;;9.27;8.13;;;8.80;99.90;;;;;;4971595;28;20191;-53
2023/02/22 00:28:35;;;;;;;9.97;8.53;;;;;;;;;;4971823;28;20181;-54
2023/02/22 00:31:01;;;;;;;10.77;8.57;;;9.00;99.90;;;;;;4970414;28;20209;-52
2023/02/22 00:33:27;;;;;;;13.77;11.20;;;;;;;;;;4971130;28;20620;-54
2023/02/22 00:35:53;;;;;;;10.30;9.13;;;;;;;;;;4971702;28;20174;-51
2023/02/22 00:38:19;;;;;;;10.40;9.17;;;;;;;;;;4971172;28;20182;-51
2023/02/22 00:40:45;;;;;;;10.70;9.50;;;8.50;99.90;;;;;;4971626;28;20186;-55
2023/02/22 00:43:11;;;;;;;12.87;9.17;;;;;;;;;;4971303;28;20194;-56
2023/02/22 00:45:37;;;;;;;10.93;8.33;;;;;;;;;;4971596;28;20198;-56
2023/02/22 00:48:05;;;;;;;8.97;8.07;;;8.60;99.90;;;;;;4971386;28;20201;-56
2023/02/22 00:50:32;;;;;;;8.53;6.67;;;8.70;99.90;;;;;;4971867;28;20784;-55
2023/02/22 00:52:59;;;;;;;7.73;6.93;;;8.20;99.90;;;;;;4971452;28;20193;-56
2023/02/22 00:55:28;;;;;;;8.93;8.00;;;8.50;99.90;;;;;;4971266;28;20217;-54
2023/02/22 00:57:54;;;;;;;9.27;7.83;;;8.60;99.90;;;;;;4971373;28;20182;-56
2023/02/22 01:00:30;;;;;;;10.27;8.20;;;8.70;99.90;;;;;;4971208;28;20273;-56
2023/02/22 01:02:56;;;;;;;9.90;8.47;;;;;;;;;;4973365;28;20244;-55
2023/02/22 01:05:24;;;;;;;10.00;9.00;;;8.60;99.90;;;;;;4974492;28;20217;-55
2023/02/22 01:07:50;;;;;;;10.93;8.50;;;8.80;99.90;;;;;;4974917;28;20194;-54
2023/02/22 01:10:20;;;;;;;9.47;8.33;;;;;;;;;;4974699;28;20280;-56
2023/02/22 01:12:46;;;;;;;9.97;8.93;;;8.70;99.90;;;;;;4974655;28;20190;-55
2023/02/22 01:15:13;;;;;;;10.60;9.50;;;8.70;99.90;;;;;;4974366;28;20564;-57
2023/02/22 01:17:40;;;;;;;11.23;9.37;;;8.50;99.90;;;;;;4974607;28;20208;-55
2023/02/22 01:20:13;;;;;;;9.07;8.03;;;8.60;99.90;;;;;;4974676;28;20189;-53
2023/02/22 01:22:43;;;;;;;8.67;7.77;;;8.50;99.90;;;;;;4974593;28;20613;-56
2023/02/22 01:25:11;;;;;;;7.27;6.57;;;8.80;99.90;;;;;;4973269;28;20601;-55
2023/02/22 01:27:37;;;;;;;8.63;6.97;;;;;;;;;;4974116;28;20188;-57
2023/02/22 01:30:07;;;;;;;7.90;7.10;;;9.00;99.90;;;;;;4970271;28;20263;-57
2023/02/22 01:32:36;;;;;;;6.87;6.03;;;8.70;99.90;;;;;;4974314;28;20181;-52
2023/02/22 01:35:04;;;;;;;7.73;6.90;;;8.60;99.90;;;;;;4973869;28;20526;-55
2023/02/22 01:37:31;;;;;;;6.57;5.90;;;8.50;99.90;;;;;;4974640;28;20193;-53
2023/02/22 01:39:57;;;;;;;8.80;6.67;;;8.50;99.90;;;;;;4974307;28;20196;-52
2023/02/22 01:42:23;;;;;;;7.80;6.47;;;8.30;99.90;;;;;;4974048;28;20186;-52
2023/02/22 01:45:07;;;;;;;6.43;5.83;;;;;;;;;;4973639;28;20202;-53
2023/02/22 01:47:33;;;;;;;8.53;5.90;;;8.30;99.90;;;;;;4973893;28;20722;-55
2023/02/22 01:49:58;;;;;;;6.53;5.87;;;8.10;99.90;;;;;;4974434;28;20202;-53
2023/02/22 01:52:24;;;;;;;7.53;5.70;;;;;;;;;;4973631;28;20268;-53
2023/02/22 01:54:56;;;;;;;5.77;5.17;;;8.40;99.90;;;;;;4974093;28;20201;-54
2023/02/22 01:57:28;;;;;;;5.70;5.17;;;;;;;;;;4973790;28;20178;-55
2023/02/22 01:59:59;;;;;;;6.70;5.80;;;8.30;99.90;;;;;;4974240;28;20185;-55
2023/02/22 02:02:26;;;;;;;5.70;5.17;;;8.40;99.90;;;;;;4973512;28;20216;-53
2023/02/22 02:04:55;;;;;;;6.80;5.87;;;;;;;;;;4972210;28;20229;-55
2023/02/22 02:07:22;;;;;;;6.27;5.50;;;8.50;99.90;;;;;;4979372;28;20220;-53
2023/02/22 02:09:58;;;;;;;8.40;6.20;;;8.30;99.90;;;;;;4978575;28;20560;-52
2023/02/22 02:12:26;;;;;;;8.63;6.73;;;8.50;99.90;;;;;;4981821;28;20189;-52
2023/02/22 02:14:52;;;;;;;8.30;7.50;;;8.40;99.90;;;;;;4973352;28;20568;-52
2023/02/22 02:17:20;;;;;;;10.63;7.97;;;8.00;99.90;;;;;;4973293;28;20272;-54
2023/02/22 02:20:01;;;;;;;8.57;7.67;;;;;;;;;;4972262;28;20189;-52
2023/02/22 02:22:50;;;;;;;9.23;8.23;;;8.40;99.90;;;;;;4973864;28;20186;-52
2023/02/22 02:25:36;;;;;;;9.20;8.30;;;;;;;;;;4973697;28;20206;-54
2023/02/22 02:28:05;;;;;;;11.70;10.50;;;8.40;99.90;;;;;;4972962;28;20193;-57
2023/02/22 02:30:31;;;;;;;10.50;9.40;;;;;;;;;;4965895;28;20672;-52
2023/02/22 02:33:05;;;;;;;12.00;10.13;;;8.40;99.90;;;;;;4973424;28;20226;-53
2023/02/22 02:35:54;;;;;;;12.87;11.50;;;;;;;;;;4972971;28;20185;-52
2023/02/22 02:38:38;;;;;;;11.70;10.50;;;;;;;;;;4972814;28;20194;-54
2023/02/22 02:41:30;;;;;;;11.37;9.50;;;;;;;;;;4973466;28;20720;-51
2023/02/22 02:44:04;;;;;;;10.60;9.50;;;8.30;99.90;;;;;;4948268;28;20217;-52
2023/02/22 02:46:42;;;;;;;10.03;9.03;;;8.30;99.90;;;;;;4973227;28;20174;-53
2023/02/22 02:49:14;;;;;;;9.37;8.20;;;8.30;99.90;;;;;;4972515;28;20185;-52
2023/02/22 02:51:44;;;;;;;9.43;8.43;;;8.30;99.90;;;;;;4972190;28;20673;-54
2023/02/22 02:54:11;;;;;;;11.47;8.20;;;8.00;99.90;;;;;;4972282;28;20213;-55
2023/02/22 02:56:37;;;;;;;11.07;8.30;;;;;;;;;;4972548;28;20182;-54
2023/02/22 02:59:03;;;;;;;9.50;8.50;;;;;;;;;;4972571;28;20190;-52
2023/02/22 03:01:43;;;;;;;9.50;8.50;;;7.80;99.90;;;;;;4972792;28;20189;-53
2023/02/22 03:04:20;;;;;;;8.93;7.67;;;;;;;;;;4983019;28;20208;-55
2023/02/22 03:07:04;;;;;;;9.47;8.57;;;;;;;;;;4972474;28;20200;-53
2023/02/22 03:09:44;;;;;;;11.37;8.70;;;;;;;;;;4972343;28;20247;-53
2023/02/22 03:12:16;;;;;;;12.90;10.50;;;8.10;99.90;;;;;;4972446;28;20659;-55
2023/02/22 03:14:54;;;;;;;9.83;8.93;;;;;;;;;;4972660;28;20221;-54
2023/02/22 03:17:29;;;;;;;10.33;9.10;;;;;;;;;;4971880;28;20182;-56
2023/02/22 03:20:09;;;;;;;10.57;8.83;;;7.90;99.90;;;;;;4972443;28;20272;-52
2023/02/22 03:23:04;;;;;;;10.50;9.40;;;;;;;;;;4971065;28;20235;-52
2023/02/22 03:25:36;;;;;;;9.17;8.27;;;8.00;99.90;;;;;;4915934;29;20196;-55
2023/02/22 03:28:10;;;;;;;9.27;8.00;;;7.90;99.90;;;;;;4967339;28;20186;-54
2023/02/22 03:30:45;;;;;;;8.53;7.70;;;7.80;99.90;;;;;;4971728;28;20244;-52
2023/02/22 03:33:19;;;;;;;8.20;7.40;;;7.80;99.90;;;;;;4972455;28;20615;-54
2023/02/22 03:35:55;;;;;;;8.47;7.57;;;7.90;99.90;;;;;;4971812;28;20193;-51
2023/02/22 03:38:21;;;;;;;7.93;7.13;;;;;;;;;;4971753;28;20177;-52
2023/02/22 03:40:50;;;;;;;9.50;8.50;;;7.70;99.90;;;;;;4971726;28;20568;-54
2023/02/22 03:43:24;;;;;;;10.20;8.57;;;7.70;99.90;;;;;;4954632;28;20189;-55
2023/02/22 03:45:50;;;;;;;8.27;7.47;;;;;;;;;;4972265;28;20193;-54
2023/02/22 03:48:42;;;;;;;8.20;7.37;;;7.60;99.90;;;;;;4954377;28;20324;-54
2023/02/22 03:51:10;;;;;;;7.87;7.00;;;7.90;99.90;;;;;;4971839;28;20209;-52
2023/02/22 03:53:36;;;;;;;8.63;7.10;;;;;;;;;;4970799;28;20228;-55
2023/02/22 03:56:06;;;;;;;7.33;6.63;;;7.70;99.90;;;;;;4972179;28;20189;-53
2023/02/22 03:58:35;;;;;;;7.27;6.50;;;8.00;99.90;;;;;;4971928;28;20193;-52
2023/02/22 04:01:02;;;;;;;8.33;6.87;;;;;;;;;;4971957;28;20194;-53
2023/02/22 04:03:27;;;;;;;7.00;6.30;;;7.70;99.90;;;;;;4971787;28;20267;-52
2023/02/22 04:05:53;;;;;;;8.60;7.70;;;7.80;99.90;;;;;;4971316;28;20708;-52
2023/02/22 04:08:19;;;;;;;8.50;7.47;;;7.80;99.90;;;;;;4970458;28;20661;-54
2023/02/22 04:10:45;;;;;;;7.00;6.30;;;;;;;;;;4971156;28;20213;-55
2023/02/22 04:13:13;;;;;;;9.73;8.20;;;;;;;;;;4970940;28;20540;-52
2023/02/22 04:15:39;;;;;;;8.27;7.47;;;;;;;;;;4954857;28;20660;-56
2023/02/22 04:18:05;;;;;;;8.50;7.60;;;;;;;;;;4978901;28;20193;-52
2023/02/22 04:20:31;;;;;;;9.20;8.30;;;;;;;;;;4972116;28;20745;-53
2023/02/22 04:22:57;;;;;;;8.53;7.73;;;8.00;99.90;;;;;;4978348;28;20197;-52
2023/02/22 04:25:23;;;;;;;9.60;8.00;;;7.80;99.90;;;;;;4972334;28;20218;-52
2023/02/22 04:27:48;;;;;;;7.53;6.50;;;7.60;99.90;;;;;;4971625;28;20196;-52
2023/02/22 04:30:17;;;;;;;7.13;6.43;;;7.70;99.90;;;;;;4971681;28;20292;-54
2023/02/22 04:32:42;;;;;;;6.90;6.20;;;7.40;99.90;;;;;;4971607;28;20182;-52
2023/02/22 04:35:08;;;;;;;7.30;6.60;;;7.40;99.90;;;;;;4971763;28;20232;-53
2023/02/22 04:37:34;;;;;;;7.67;6.87;;;7.50;99.90;;;;;;4972466;28;20182;-53
2023/02/22 04:40:06;;;;;;;7.93;6.43;;;7.70;99.90;;;;;;4975433;28;20194;-55
2023/02/22 04:42:36;;;;;;;8.23;6.90;;;7.60;99.90;;;;;;4975178;28;20188;-54
2023/02/22 04:45:03;;;;;;;7.30;6.57;;;7.50;99.90;;;;;;4982439;28;20205;-52
2023/02/22 04:47:29;;;;;;;6.97;6.20;;;;;;;;;;4975972;28;20530;-53
2023/02/22 04:49:54;;;;;;;8.53;7.63;;;;;;;;;;4974837;28;20240;-55
2023/02/22 04:52:21;;;;;;;23.10;19.53;;;;;;;;;;4977591;28;20189;-52
2023/02/22 04:54:47;;;;;;;54.70;42.43;;;;;;;;;;4957488;28;20201;-56
2023/02/22 04:57:13;;;;;;;31.43;26.17;;;7.60;99.90;;;;;;4974352;28;20633;-53
2023/02/22 04:59:39;;;;;;;17.67;15.73;;;;;;;;;;4974314;28;20245;-54
2023/02/22 05:02:05;;;;;;;11.67;10.47;;;;;;;;;;4973695;28;20197;-54
2023/02/22 05:04:31;;;;;;;9.40;7.67;;;;;;;;;;4974703;28;20296;-55
2023/02/22 05:06:57;;;;;;;7.27;6.57;;;7.40;99.90;;;;;;4975069;28;20233;-54
2023/02/22 05:09:22;;;;;;;6.97;6.27;;;7.00;99.90;;;;;;4974124;28;20213;-53
2023/02/22 05:11:48;;;;;;;7.63;6.83;;;7.40;99.90;;;;;;4973415;28;20178;-52
2023/02/22 05:14:14;;;;;;;15.17;13.33;;;;;;;;;;4974720;28;20205;-56
2023/02/22 05:16:40;;;;;;;15.73;14.17;;;;;;;;;;4974541;28;20268;-53
2023/02/22 05:19:06;;;;;;;11.13;9.93;;;;;;;;;;4974772;28;20651;-55
2023/02/22 05:21:32;;;;;;;13.30;10.90;;;;;;;;;;4974252;28;20226;-54
2023/02/22 05:23:57;;;;;;;7.50;6.70;;;7.30;99.90;;;;;;4974548;28;20209;-52
2023/02/22 05:26:23;;;;;;;7.43;6.63;;;7.50;99.90;;;;;;4974507;28;20574;-52
2023/02/22 05:28:49;;;;;;;14.47;12.97;;;7.00;99.90;;;;;;4974452;28;20189;-54
2023/02/22 05:31:16;;;;;;;8.93;7.93;;;;;;;;;;4974143;28;20241;-56
2023/02/22 05:33:42;;;;;;;8.00;7.20;;;;;;;;;;4956749;28;20212;-52
2023/02/22 05:36:08;;;;;;;8.90;7.27;;;7.20;99.90;;;;;;4956506;28;20189;-52
2023/02/22 05:38:35;;;;;;;9.80;8.23;;;7.40;99.90;;;;;;4974045;28;20560;-52
2023/02/22 05:41:00;;;;;;;9.30;7.90;;;6.90;99.90;;;;;;4974282;28;20198;-52
2023/02/22 05:43:26;;;;;;;9.03;8.13;;;;;;;;;;4974266;28;20588;-55
2023/02/22 05:45:52;;;;;;;10.70;9.60;;;;;;;;;;4974090;28;20189;-51
2023/02/22 05:48:18;;;;;;;20.33;16.80;;;;;;;;;;4972907;28;20193;-54
2023/02/22 05:50:44;;;;;;;27.73;19.83;;;7.00;99.90;;;;;;4973559;28;20205;-54
2023/02/22 05:53:10;;;;;;;21.77;15.27;;;;;;;;;;4974408;28;20186;-55
2023/02/22 05:55:35;;;;;;;8.00;7.20;;;;;;;;;;4973830;28;20181;-55
2023/02/22 05:58:04;;;;;;;7.17;6.47;;;6.90;99.90;;;;;;4973671;28;20182;-51
2023/02/22 06:00:31;;;;;;;12.73;9.37;;;7.10;99.90;;;;;;4973608;28;20189;-55
2023/02/22 06:03:02;;;;;;;11.47;9.97;;;7.00;99.90;;;;;;4973852;28;20232;-51
2023/02/22 06:05:28;;;;;;;10.37;9.27;;;7.10;99.90;;;;;;4973435;28;20213;-52
2023/02/22 06:07:54;;;;;;;17.47;15.27;;;;;;;;;;4971667;28;20709;-59
2023/02/22 06:10:21;;;;;;;21.60;18.20;;;;;;;;;;4973999;28;20225;-57
2023/02/22 06:12:48;;;;;;;11.23;10.03;;;7.30;99.90;;;;;;4958967;28;20209;-57
2023/02/22 06:15:15;;;;;;;11.40;9.97;;;7.10;99.90;;;;;;4969168;28;20680;-51
2023/02/22 06:17:40;;;;;;;22.63;18.63;;;7.30;99.90;;;;;;4976164;28;20189;-52
2023/02/22 06:20:10;;;;;;;17.30;14.27;;;7.30;99.90;;;;;;4972384;28;20757;-51
2023/02/22 06:22:36;;;;;;;18.93;16.43;;;;;;;;;;4957270;28;20182;-52
2023/02/22 06:25:05;;;;;;;22.00;19.57;;;7.30;99.90;;;;;;4965333;28;20209;-51
2023/02/22 06:27:31;;;;;;;29.60;25.13;;;7.30;99.90;;;;;;4977438;28;20190;-51
2023/02/22 06:29:57;;;;;;;38.57;29.70;;;;;;;;;;4973702;28;20244;-56
2023/02/22 06:32:23;;;;;;;31.60;25.87;;;;;;;;;;4973574;28;20192;-58
2023/02/22 06:34:49;;;;;;;35.40;28.37;;;;;;;;;;4973627;28;20276;-52
2023/02/22 06:37:15;;;;;;;32.37;26.80;;;7.70;99.90;;;;;;4972911;28;20181;-51
2023/02/22 06:39:40;;;;;;;28.53;22.60;;;8.00;99.90;;;;;;4973630;28;20185;-51
2023/02/22 06:42:06;;;;;;;36.97;29.43;;;;;;;;;;4973000;28;20544;-55
2023/02/22 06:44:32;;;;;;;24.13;17.67;;;;;;;;;;4991220;28;20595;-55
2023/02/22 06:46:58;;;;;;;85.53;58.53;;;;;;;;;;4985707;28;20649;-55
2023/02/22 06:49:25;;;;;;;103.27;73.43;;;8.00;99.90;;;;;;4972694;28;20260;-54
2023/02/22 06:51:51;;;;;;;125.97;80.37;;;;;;;;;;4971581;28;20174;-53
2023/02/22 06:54:17;;;;;;;115.10;75.10;;;;;;;;;;4972342;28;20201;-54
2023/02/22 06:56:43;;;;;;;103.17;65.37;;;;;;;;;;4972832;28;20561;-53
2023/02/22 06:59:09;;;;;;;144.53;91.00;;;8.20;99.90;;;;;;4972616;28;20593;-56
2023/02/22 07:01:35;;;;;;;92.77;57.30;;;;;;;;;;4972762;28;20182;-56
2023/02/22 07:04:01;;;;;;;90.90;68.17;;;;;;;;;;4972458;28;20216;-56
2023/02/22 07:06:26;;;;;;;26.67;20.67;;;8.60;99.90;;;;;;4972747;28;20194;-55
2023/02/22 07:08:53;;;;;;;14.83;11.73;;;8.20;99.90;;;;;;4972999;28;20174;-56
2023/02/22 07:11:19;;;;;;;13.40;10.50;;;;;;;;;;4972092;28;20198;-55
2023/02/22 07:13:45;;;;;;;18.30;13.30;;;8.80;99.90;;;;;;4972298;28;20202;-54
2023/02/22 07:16:10;;;;;;;13.97;10.17;;;8.80;99.90;;;;;;4971948;28;20203;-55
2023/02/22 07:18:36;;;;;;;27.23;18.77;;;8.80;99.90;;;;;;4966569;28;20555;-52
2023/02/22 07:21:02;;;;;;;25.27;17.00;;;;;;;;;;4972565;28;20575;-55
2023/02/22 07:23:28;;;;;;;31.73;21.77;;;;;;;;;;4970577;28;20209;-59
2023/02/22 07:25:54;;;;;;;27.90;18.37;;;;;;;;;;4972138;28;20272;-55
2023/02/22 07:28:20;;;;;;;19.03;12.80;;;;;;;;;;4971791;28;20197;-55
2023/02/22 07:30:45;;;;;;;28.47;20.20;;;8.90;99.90;;;;;;4971447;28;20209;-53
2023/02/22 07:33:11;;;;;;;18.37;12.70;;;9.00;99.90;;;;;;4969856;28;20213;-55
2023/02/22 07:35:38;;;;;;;23.70;16.97;;;9.40;99.90;;;;;;4971659;28;21081;-52
2023/02/22 07:38:06;;;;;;;14.50;10.63;;;9.40;99.90;;;;;;4971850;28;20178;-55
2023/02/22 07:40:33;;;;;;;22.43;16.43;;;9.70;99.90;;;;;;4971800;28;20776;-55
2023/02/22 07:43:04;;;;;;;14.60;10.60;;;9.80;99.90;;;;;;4971921;28;20565;-59
2023/02/22 07:45:32;;;;;;;15.83;12.00;;;10.30;99.90;;;;;;4974949;28;20202;-54
2023/02/22 07:47:59;;;;;;;36.13;28.97;;;10.20;99.90;;;;;;4990957;28;20260;-54
2023/02/22 07:50:27;;;;;;;20.50;16.83;;;10.30;99.90;;;;;;4971285;28;20205;-60
2023/02/22 07:52:54;;;;;;;10.80;9.50;;;10.70;99.90;;;;;;4980298;28;20173;-53
2023/02/22 07:55:24;;;;;;;13.87;12.30;;;10.90;99.90;;;;;;4979978;28;20704;-55
2023/02/22 07:57:51;;;;;;;8.03;6.00;;;11.40;99.90;;;;;;4982690;28;20549;-56
2023/02/22 08:00:46;;;;;;;4.10;3.70;;;;;;;;;;4991884;28;20553;-62
2023/02/22 08:03:12;;;;;;;4.30;3.90;;;11.50;99.90;;;;;;4989143;28;20220;-61
2023/02/22 08:05:39;;;;;;;4.10;3.70;;;11.70;99.90;;;;;;4987533;28;20201;-55
2023/02/22 08:08:06;;;;;;;4.20;3.80;;;12.20;99.90;;;;;;4979884;28;20182;-54
2023/02/22 08:10:34;;;;;;;5.10;4.60;;;12.50;99.90;;;;;;4989654;28;20220;-56
2023/02/22 08:13:00;;;;;;;4.87;4.10;;;12.80;99.90;;;;;;4994122;28;20573;-53
2023/02/22 08:15:31;;;;;;;5.00;4.60;;;13.10;99.90;;;;;;4995600;28;20272;-53
2023/02/22 08:17:59;;;;;;;4.97;4.00;;;13.20;99.90;;;;;;4994798;28;20177;-57
2023/02/22 08:20:26;;;;;;;3.43;2.90;;;13.20;99.90;;;;;;4995087;28;20273;-56
2023/02/22 08:22:52;;;;;;;5.57;5.07;;;13.30;99.90;;;;;;4995590;28;20642;-54
2023/02/22 08:25:20;;;;;;;6.27;5.67;;;13.70;99.90;;;;;;4995506;28;20251;-53
2023/02/22 08:27:46;;;;;;;4.47;3.70;;;13.50;99.90;;;;;;4995196;28;20645;-56
2023/02/22 08:30:21;;;;;;;3.30;3.00;;;14.30;99.90;;;;;;4995351;28;20214;-54
2023/02/22 08:32:48;;;;;;;3.70;3.40;;;14.40;99.90;;;;;;4995126;28;20180;-60
2023/02/22 08:35:16;;;;;;;5.07;3.97;;;14.10;99.90;;;;;;4995116;28;20298;-55
2023/02/22 08:37:47;;;;;;;3.67;3.37;;;14.70;99.90;;;;;;4995056;28;20196;-56
2023/02/22 08:40:16;;;;;;;3.80;3.50;;;14.40;99.90;;;;;;4994489;28;20204;-54
2023/02/22 08:42:42;;;;;;;5.00;4.53;;;;;;;;;;4994919;28;20184;-59
2023/02/22 08:45:08;;;;;;;3.87;3.57;;;;;;;;;;4995048;28;20287;-54
2023/02/22 08:47:34;;;;;;;3.77;3.47;;;;;;;;;;4994373;28;20173;-59
2023/02/22 08:50:00;;;;;;;4.00;3.00;;;;;;;;;;4994239;28;20205;-56
2023/02/22 08:52:26;;;;;;;3.67;3.37;;;;;;;;;;4994065;28;20169;-59
2023/02/22 08:54:52;;;;;;;3.67;3.37;;;;;;;;;;4991149;28;20189;-56
2023/02/22 08:57:18;;;;;;;3.27;3.03;;;20.20;99.90;;;;;;4973806;28;20181;-54
2023/02/22 08:59:43;;;;;;;3.70;3.40;;;21.80;99.90;;;;;;4975011;28;20196;-53
2023/02/22 09:02:17;;;;;;;48.30;43.63;;;23.70;99.90;;;;;;4974939;28;20174;-54
2023/02/22 09:04:43;;;;;;;5.85;5.25;;;25.70;99.00;;;;;;4974798;28;20325;-54
2023/02/22 09:07:09;;;;;;;3.33;3.03;;;27.90;94.90;;;;;;4957680;28;20675;-55
2023/02/22 09:09:35;;;;;;;3.25;2.90;;;;;;;;;;4975090;28;20194;-57
2023/02/22 09:12:01;;;;;;;2.50;2.30;;;30.70;72.50;;;;;;4974975;28;20178;-59
2023/02/22 09:14:27;;;;;;;2.50;2.30;;;;;;;;;;4974707;28;20206;-59
2023/02/22 09:16:53;;;;;;;2.60;2.45;;;;;;;;;;4974804;28;20194;-61
2023/02/22 09:19:19;;;;;;;2.53;2.33;;;;;;;;;;4974749;28;20205;-61
2023/02/22 09:21:45;;;;;;;2.53;2.40;;;;;;;;;;4980932;28;20173;-57
2023/02/22 09:24:11;;;;;;;2.67;2.40;;;;;;;;;;4990861;28;20195;-58
2023/02/22 09:26:41;;;;;;;2.38;2.17;;;34.00;53.30;;;;;;4992379;28;20165;-55
2023/02/22 09:29:10;;;;;;;2.95;2.75;;;34.20;50.30;;;;;;4989870;28;20543;-60
2023/02/22 09:31:38;;;;;;;2.40;2.20;;;34.40;49.70;;;;;;4974258;28;20233;-61
2023/02/22 09:34:14;;;;;;;2.20;2.00;;;34.60;49.90;;;;;;4973958;28;20825;-62
2023/02/22 09:36:44;;;;;;;2.38;2.28;;;35.50;48.40;;;;;;4974636;28;20537;-56
2023/02/22 09:39:11;;;;;;;2.42;2.22;;;;;;;;;;4974572;28;20256;-60
2023/02/22 09:42:02;;;;;;;2.10;2.00;;;37.40;45.70;;;;;;4974555;28;20219;-57
2023/02/22 09:44:39;;;;;;;2.33;2.15;;;38.00;55.40;;;;;;4974638;28;20300;-53
2023/02/22 09:47:09;;;;;;;1.92;1.77;;;;;;;;;;4974276;28;20196;-61
2023/02/22 09:49:46;;;;;;;2.10;2.00;;;37.20;41.50;;;;;;4973558;28;20537;-60
2023/02/22 09:52:42;;;;;;;2.20;2.00;;;37.40;41.60;;;;;;4974596;28;20169;-56
2023/02/22 09:55:29;;;;;;;2.00;1.90;;;37.00;40.10;;;;;;4974433;28;20209;-57
2023/02/22 09:58:06;;;;;;;2.42;2.22;;;36.80;39.90;;;;;;4973401;28;20188;-59
2023/02/22 10:00:42;;;;;;;2.28;2.08;;;36.10;49.00;;;;;;4974166;28;20189;-58
2023/02/22 10:03:20;;;;;;;1.63;1.52;;;35.90;41.50;;;;;;4973784;28;20169;-51
2023/02/22 10:05:59;;;;;;;2.30;2.10;;;36.20;40.40;;;;;;4973887;28;20574;-60
2023/02/22 10:08:30;;;;;;;2.00;1.90;;;35.70;43.80;;;;;;4973160;28;20192;-54
2023/02/22 10:11:27;;;;;;;1.92;1.83;;;35.80;40.00;;;;;;4974290;28;20212;-62
2023/02/22 10:14:13;;;;;;;3.08;1.95;;;36.10;53.90;;;;;;4914174;29;20203;-57
2023/02/22 10:16:59;;;;;;;1.85;1.75;;;35.60;40.40;;;;;;4914249;29;20171;-58
2023/02/22 10:19:37;;;;;;;1.70;1.60;;;35.90;40.30;;;;;;4910979;29;20765;-62
2023/02/22 10:22:36;;;;;;;1.98;1.88;;;36.00;39.40;;;;;;4907073;29;20324;-58
2023/02/22 10:25:11;;;;;;;1.92;1.80;;;35.80;39.80;;;;;;4908280;29;20211;-56
2023/02/22 10:27:59;;;;;;;1.85;1.75;;;36.20;39.70;;;;;;4913531;29;20576;-57
2023/02/22 10:30:32;;;;;;;1.70;1.60;;;36.60;39.00;;;;;;4909931;29;20215;-57
2023/02/22 10:33:14;;;;;;;1.95;1.77;;;36.60;39.10;;;;;;4913613;29;20184;-57
2023/02/22 10:35:40;;;;;;;1.33;1.33;;;37.10;51.40;;;;;;4912966;29;20582;-57
2023/02/22 10:38:30;;;;;;;2.20;2.00;;;37.60;37.90;;;;;;4912644;29;20192;-56
2023/02/22 10:41:00;;;;;;;1.90;1.60;;;38.20;48.50;;;;;;4911121;29;20547;-57
2023/02/22 10:43:26;;;;;;;1.70;1.60;;;;;;;;;;4912985;29;20286;-60
2023/02/22 10:45:56;;;;;;;1.48;1.38;;;38.30;36.30;;;;;;4912701;29;20235;-57
2023/02/22 10:48:25;;;;;;;1.73;1.63;;;38.20;36.50;;;;;;4912359;29;20215;-57
2023/02/22 10:50:55;;;;;;;1.50;1.40;;;38.50;49.30;;;;;;4936748;28;20242;-55
2023/02/22 10:53:22;;;;;;;1.60;1.50;;;;;;;;;;4952677;28;20233;-56
2023/02/22 10:56:26;;;;;;;1.65;1.55;;;39.00;35.80;;;;;;4963708;28;20177;-55
2023/02/22 10:59:01;;;;;;;0.90;0.90;;;40.00;34.90;;;;;;4972253;28;20620;-59
2023/02/22 11:01:36;;;;;;;1.30;1.20;;;40.10;44.10;;;;;;4972680;28;20564;-60
2023/02/22 11:04:17;;;;;;;1.30;1.20;;;39.90;45.60;;;;;;4968864;28;20684;-57
2023/02/22 11:06:47;;;;;;;1.52;1.20;;;40.10;40.60;;;;;;4965046;28;20208;-57
2023/02/22 11:09:16;;;;;;;1.08;1.05;;;41.20;33.80;;;;;;4965469;28;20248;-58
2023/02/22 11:11:46;;;;;;;1.55;1.45;;;42.20;31.60;;;;;;4968219;28;20552;-57
2023/02/22 11:14:27;;;;;;;1.27;1.17;;;41.50;42.90;;;;;;4972782;28;20255;-54
2023/02/22 11:16:55;;;;;;;2.00;1.50;;;41.80;31.50;;;;;;4972617;28;20193;-60
2023/02/22 11:19:33;;;;;;;1.63;1.50;;;42.30;32.60;;;;;;4972563;28;20177;-59
2023/02/22 11:22:10;;;;;;;2.00;1.88;;;42.50;41.80;;;;;;4969981;28;20188;-54
2023/02/22 11:24:56;;;;;;;1.92;1.70;;;42.90;31.30;;;;;;4966052;28;20625;-56
2023/02/22 11:27:39;;;;;;;1.58;1.48;;;43.10;37.50;;;;;;4978843;28;20259;-58
2023/02/22 11:30:14;;;;;;;1.60;1.50;;;43.90;39.50;;;;;;4965535;28;20184;-56
2023/02/22 11:32:45;;;;;;;2.35;1.63;;;44.20;28.80;;;;;;4969539;28;20185;-57
2023/02/22 11:35:37;;;;;;;1.95;1.83;;;43.20;39.00;;;;;;4972461;28;20289;-54
2023/02/22 11:38:17;;;;;;;1.83;1.73;;;41.50;40.50;;;;;;4980363;28;20174;-57
2023/02/22 11:40:44;;;;;;;2.00;1.90;;;42.00;41.50;;;;;;4972414;28;20734;-56
2023/02/22 11:43:18;;;;;;;1.80;1.70;;;41.30;31.10;;;;;;4972470;28;20200;-53
2023/02/22 11:46:01;;;;;;;1.70;1.60;;;41.50;30.10;;;;;;4972225;28;20188;-54
2023/02/22 11:48:29;;;;;;;1.75;1.65;;;41.60;31.20;;;;;;4971713;28;20260;-59
2023/02/22 11:51:02;;;;;;;2.00;1.50;;;42.10;30.10;;;;;;4972522;28;20187;-58
2023/02/22 11:54:03;;;;;;;1.35;1.30;;;42.10;41.00;;;;;;4972345;28;20181;-57
2023/02/22 11:56:47;;;;;;;1.60;1.50;;;42.20;41.10;;;;;;4969075;28;20191;-57
2023/02/22 11:59:25;;;;;;;1.70;1.60;;;42.30;30.00;;;;;;4972081;28;20556;-56
2023/02/22 12:01:58;;;;;;;1.67;1.52;;;42.70;29.90;;;;;;4972214;28;20646;-53
2023/02/22 12:04:48;;;;;;;1.52;1.42;;;42.40;30.20;;;;;;4972210;28;20212;-58
2023/02/22 12:07:16;;;;;;;1.90;1.80;;;42.40;39.30;;;;;;4971665;28;20327;-53
2023/02/22 12:10:04;;;;;;;1.38;1.35;;;42.20;28.80;;;;;;4972086;28;20181;-51
2023/02/22 12:12:48;;;;;;;1.90;1.80;;;41.20;39.60;;;;;;4956448;28;20248;-56
2023/02/22 12:15:27;;;;;;;2.00;1.60;;;40.70;40.70;;;;;;4974827;28;20201;-59
2023/02/22 12:18:22;;;;;;;1.63;1.52;;;40.90;41.40;;;;;;4971831;28;20223;-58
2023/02/22 12:20:55;;;;;;;1.38;1.27;;;40.60;41.50;;;;;;4971926;28;20201;-57
2023/02/22 12:23:28;;;;;;;1.67;1.58;;;39.90;33.30;;;;;;4971943;28;20169;-54
2023/02/22 12:26:09;;;;;;;1.70;1.60;;;40.10;29.80;;;;;;4971953;28;20169;-57
2023/02/22 12:29:00;;;;;;;1.80;1.70;;;38.40;42.10;;;;;;4971724;28;20189;-57
2023/02/22 12:31:40;;;;;;;1.90;1.80;;;37.60;43.30;;;;;;4972030;28;20196;-56
2023/02/22 12:34:18;;;;;;;1.88;1.77;;;36.60;44.60;;;;;;4971772;28;20201;-57
2023/02/22 12:37:21;;;;;;;2.05;1.95;;;35.20;46.10;;;;;;4971240;28;20173;-58
2023/02/22 12:40:24;;;;;;;1.83;1.73;;;34.90;35.80;;;;;;4966550;28;20213;-58
2023/02/22 12:43:03;;;;;;;1.90;1.80;;;34.60;47.50;;;;;;4969948;28;20172;-56
2023/02/22 12:45:47;;;;;;;2.05;1.85;;;34.30;33.90;;;;;;4971799;28;20189;-59
2023/02/22 12:48:25;;;;;;;3.70;2.13;;;33.80;38.50;;;;;;4979360;28;20252;-56
2023/02/22 12:51:00;;;;;;;1.70;1.60;;;34.00;35.70;;;;;;4971859;28;20177;-48
2023/02/22 12:53:33;;;;;;;1.70;1.60;;;34.20;49.20;;;;;;4971879;28;20181;-49
2023/02/22 12:56:24;;;;;;;3.05;1.63;;;34.30;35.80;;;;;;4971661;28;20197;-49
2023/02/22 12:58:51;;;;;;;1.88;1.70;;;;;;;;;;4972939;28;20189;-53
2023/02/22 13:01:20;;;;;;;1.88;1.77;;;33.70;48.80;;;;;;4975327;28;20837;-49
2023/02/22 13:03:47;;;;;;;2.10;1.95;;;;;;;;;;4974801;28;20549;-52
2023/02/22 13:06:35;;;;;;;1.48;1.38;;;32.90;36.90;;;;;;4975060;28;20189;-50
2023/02/22 13:09:15;;;;;;;1.90;1.80;;;32.50;36.70;;;;;;4974999;28;20173;-51
2023/02/22 13:12:03;;;;;;;3.20;1.80;;;32.70;50.20;;;;;;4974956;28;20181;-52
2023/02/22 13:14:59;;;;;;;2.40;1.42;;;31.70;52.40;;;;;;4975236;28;20194;-50
2023/02/22 13:17:57;;;;;;;1.60;1.50;;;31.20;42.30;;;;;;4974483;28;20188;-51
2023/02/22 13:20:23;;;;;;;1.77;1.67;;;;;;;;;;4974928;28;20193;-52
2023/02/22 13:23:09;;;;;;;2.03;1.83;;;31.30;38.50;;;;;;4973779;28;20205;-52
2023/02/22 13:25:56;;;;;;;1.77;1.67;;;30.80;53.00;;;;;;4974990;28;20259;-52
2023/02/22 13:28:22;;;;;;;1.40;1.30;;;;;;;;;;4974456;28;20178;-50
2023/02/22 13:30:55;;;;;;;1.38;1.25;;;30.50;40.30;;;;;;4974781;28;20174;-51
2023/02/22 13:33:30;;;;;;;1.70;1.60;;;30.90;39.30;;;;;;4974350;28;20182;-52
2023/02/22 13:35:56;;;;;;;1.50;1.40;;;;;;;;;;4974667;28;20213;-50
2023/02/22 13:38:44;;;;;;;2.15;1.95;;;31.00;48.50;;;;;;4974559;28;20178;-51
2023/02/22 13:41:24;;;;;;;1.55;1.45;;;30.80;39.80;;;;;;4974678;28;20197;-47